Terminal Aerodrome Forecast
Issued by NWS Grand Forks, ND

Current Version | Previous Version | Text Only | Print | Product List | Glossary On
Versions: 1 2 3 4 5 6 7 8 9 10 11 12 13 14 15 16 17 18 19
000
FTUS43 KFGF 232300
TAFGFK
TAF
KGFK 232322Z 2400/2424 18015G22KT P6SM SCT050
     FM240200 18013KT P6SM BKN050
     FM240800 16011KT P6SM BKN025
     FM241900 18009KT P6SM SCT035=

USA.gov is the U.S. government's official web portal to all federal, state and local government web resources and services.